»·PEaware :: N523VF KSBP-KSMX

N523VF :: KSBP-KSMX

FLIGHT INFORMATION

Flight Status: Arrived
Operator: Privately registered:
United States
More flights under this callsign
Pilot: Chris Beckett (15698)
Aircraft: Unknown
(VIPJ)
More flights by this aircraft type
Origin: KSBP San Luis Co Regl
United States
Destination: KSMX Santa Maria Pub/Capt Hancock
United States
More flights between these airports :: More routes between these airports
Route: +
File this flight plan on PilotEdge
Remarks: CAT-04
Altitude:
(Current/Filed)
4,000ft
Speed:
(Current/Filed)
200kts
Departed: 14-Jun-17 05:23 PM
Arrived: 14-Jun-17 05:36 PM
Distance/Time
Traveled:
22nm/0:13
Distance/Time
To Go:
Arrived

Flight Plot

Page will automatically refresh every two minutes.


Map Options




Map Legend


Flown Route
Filed Route
Departure Airport
Arrival Airport
Navaid (VOR, NDB)
Fix

Horizontal Profiles

Position Reports

Time Latitude Longitude Heading Altitude Ground
Speed
14-Jun-17 16:06 34.900806 -120.451473 237 265ft 0kts
14-Jun-17 16:07 34.900806 -120.451473 237 265ft 0kts
14-Jun-17 16:09 35.238471 -120.640018 304 215ft 0kts
14-Jun-17 16:10 35.238471 -120.640018 304 215ft 0kts
14-Jun-17 16:11 35.238471 -120.640018 304 215ft 0kts
14-Jun-17 16:12 35.238471 -120.640018 304 215ft 0kts
14-Jun-17 16:13 35.238471 -120.640018 304 215ft 0kts
14-Jun-17 16:14 35.238471 -120.640018 304 215ft 0kts
14-Jun-17 16:22 35.238481 -120.640021 304 215ft 0kts
14-Jun-17 16:23 35.238481 -120.640021 304 215ft 0kts
14-Jun-17 16:24 35.238481 -120.640021 304 215ft 0kts
14-Jun-17 16:25 35.238481 -120.640021 304 215ft 0kts
14-Jun-17 16:26 35.238481 -120.640021 304 215ft 0kts
14-Jun-17 16:27 35.238481 -120.640021 304 215ft 0kts
14-Jun-17 16:28 35.238481 -120.640021 304 215ft 0kts
14-Jun-17 16:29 35.238481 -120.640021 304 215ft 0kts
14-Jun-17 16:30 35.238481 -120.640021 304 215ft 0kts
14-Jun-17 16:31 35.238481 -120.640021 304 215ft 0kts
14-Jun-17 16:32 35.238481 -120.640021 304 215ft 0kts
14-Jun-17 16:33 35.238481 -120.640021 304 215ft 0kts
14-Jun-17 16:34 35.238481 -120.640021 304 215ft 0kts
14-Jun-17 16:35 35.238481 -120.640021 304 215ft 0kts
14-Jun-17 16:36 35.238481 -120.640021 304 215ft 0kts
14-Jun-17 16:37 35.238481 -120.640021 304 215ft 0kts
14-Jun-17 16:38 35.238481 -120.640021 304 215ft 0kts
14-Jun-17 16:39 35.238481 -120.640021 304 215ft 0kts
14-Jun-17 16:40 35.238481 -120.640021 304 215ft 0kts
14-Jun-17 16:41 35.238481 -120.640021 304 215ft 0kts
14-Jun-17 16:42 35.238481 -120.640021 304 215ft 0kts
14-Jun-17 16:43 35.238481 -120.640021 304 215ft 0kts
14-Jun-17 16:44 35.238481 -120.640021 304 215ft 0kts
14-Jun-17 16:45 35.238481 -120.640021 304 215ft 0kts
14-Jun-17 16:48 35.238481 -120.640021 304 215ft 0kts
14-Jun-17 16:49 35.238481 -120.640021 304 215ft 0kts
14-Jun-17 16:50 35.238481 -120.640021 304 215ft 0kts
14-Jun-17 16:51 35.238481 -120.640021 304 215ft 0kts
14-Jun-17 16:54 35.238467 -120.640016 304 215ft 0kts
14-Jun-17 16:55 35.238467 -120.640016 304 215ft 0kts
14-Jun-17 16:56 35.238467 -120.640016 304 215ft 0kts
14-Jun-17 16:57 35.238467 -120.640016 304 215ft 0kts
14-Jun-17 16:58 35.238467 -120.640016 304 215ft 0kts
14-Jun-17 16:59 35.238467 -120.640016 304 215ft 0kts
14-Jun-17 17:00 35.238467 -120.640016 304 215ft 0kts
14-Jun-17 17:02 35.238467 -120.640016 304 215ft 0kts
14-Jun-17 17:04 35.238467 -120.640016 304 215ft 0kts
14-Jun-17 17:05 35.238467 -120.640016 304 215ft 0kts
14-Jun-17 17:06 35.238467 -120.640016 304 215ft 0kts
14-Jun-17 17:07 35.238467 -120.640016 304 215ft 0kts
14-Jun-17 17:08 35.238467 -120.640016 304 215ft 0kts
14-Jun-17 17:09 35.238467 -120.640016 304 215ft 0kts
14-Jun-17 17:10 35.238467 -120.640016 304 215ft 0kts
14-Jun-17 17:11 35.238467 -120.640016 304 215ft 0kts
14-Jun-17 17:12 35.238467 -120.640016 304 215ft 0kts
14-Jun-17 17:13 35.238467 -120.640016 304 215ft 0kts
14-Jun-17 17:18 35.238479 -120.640022 304 215ft 0kts
14-Jun-17 17:19 35.238479 -120.640022 304 215ft 0kts
14-Jun-17 17:20 35.238286 -120.640167 155 215ft 7kts
14-Jun-17 17:21 35.235570 -120.635996 125 215ft 22kts
14-Jun-17 17:22 35.233249 -120.632398 212 215ft 0kts
14-Jun-17 17:23 35.233249 -120.632398 212 215ft 0kts
14-Jun-17 17:24 35.233249 -120.632398 212 215ft 0kts
14-Jun-17 17:25 35.233022 -120.633448 303 215ft 0kts
14-Jun-17 17:26 35.244380 -120.657178 296 921ft 138kts
14-Jun-17 17:27 35.229009 -120.689613 177 1869ft 167kts
14-Jun-17 17:28 35.189339 -120.652537 184 2446ft 194kts
14-Jun-17 17:29 35.149189 -120.671868 146 2825ft 179kts
14-Jun-17 17:30 35.116854 -120.627601 147 3142ft 174kts
14-Jun-17 17:31 35.076691 -120.595512 150 3436ft 172kts
14-Jun-17 17:32 35.036465 -120.564151 149 3712ft 171kts
14-Jun-17 17:33 34.995624 -120.531078 146 2434ft 171kts
14-Jun-17 17:34 34.960839 -120.500230 146 1767ft 145kts
14-Jun-17 17:35 34.930907 -120.471979 137 1476ft 132kts
14-Jun-17 17:35 34.911086 -120.444132 125 1308ft 124kts
14-Jun-17 17:36 34.891446 -120.411741 150 1272ft 114kts
14-Jun-17 17:37 34.879728 -120.429452 310 1075ft 116kts
14-Jun-17 17:39 34.901986 -120.456652 316 265ft 17kts
14-Jun-17 17:39 34.903305 -120.456456 41 265ft 0kts
14-Jun-17 17:41 34.903316 -120.456443 42 265ft 1kts
14-Jun-17 17:41 34.901852 -120.454153 134 265ft 20kts
14-Jun-17 17:42 34.901159 -120.452105 202 265ft 0kts
14-Jun-17 17:44 34.901159 -120.452105 202 265ft 0kts
14-Jun-17 17:45 34.901159 -120.452105 202 265ft 0kts
14-Jun-17 17:45 34.901159 -120.452105 202 265ft 0kts
14-Jun-17 17:46 34.901159 -120.452105 202 265ft 0kts
14-Jun-17 17:47 34.901159 -120.452105 202 265ft 0kts
14-Jun-17 17:48 34.901159 -120.452105 202 265ft 0kts
14-Jun-17 17:49 34.901159 -120.452105 202 265ft 0kts
14-Jun-17 17:50 34.901159 -120.452105 202 265ft 0kts
14-Jun-17 17:51 34.901159 -120.452105 202 265ft 0kts
14-Jun-17 17:52 34.901159 -120.452105 202 265ft 0kts

Navigation Log

Ident Type
1. KSBP Airport
2. KSMX Airport